Time;durP1;ratioP1;P1;durP2;ratioP2;P2;SDS_P1;SDS_P2;PMS_P1;PMS_P2;Temp;Humidity;BMP_temperature;BMP_pressure;BME280_temperature;BME280_humidity;BME280_pressure;Samples;Min_cycle;Max_cycle;Signal;HPM_P1;HPM_P2
2020/12/16 00:01:16;;;;;;;14.70;9.70;;;;;;;2.80;100.00;97210.41;5053154;28;20210;-87
2020/12/16 00:03:43;;;;;;;13.33;9.87;;;;;;;2.69;100.00;97217.16;5053317;28;20186;-87
2020/12/16 00:06:10;;;;;;;13.40;9.37;;;;;;;2.86;100.00;97219.63;5053441;28;20595;-87
2020/12/16 00:08:38;;;;;;;17.57;10.17;;;;;;;2.77;100.00;97218.41;5053002;28;20193;-86
2020/12/16 00:11:04;;;;;;;13.77;9.33;;;;;;;2.85;100.00;97217.97;5053318;28;20198;-87
2020/12/16 00:13:31;;;;;;;13.60;9.67;;;;;;;2.95;100.00;97219.09;5053299;28;20229;-88
2020/12/16 00:15:58;;;;;;;16.80;10.83;;;;;;;2.91;100.00;97228.00;5053104;28;20288;-87
2020/12/16 00:18:25;;;;;;;12.33;9.17;;;;;;;2.95;100.00;97228.66;5053198;28;20340;-88
2020/12/16 00:20:52;;;;;;;20.67;11.80;;;;;;;2.93;100.00;97226.13;5053390;28;20295;-88
2020/12/16 00:23:19;;;;;;;15.13;10.73;;;;;;;3.06;100.00;97231.47;5053155;28;20206;-88
2020/12/16 00:25:46;;;;;;;18.03;11.40;;;;;;;3.11;100.00;97226.84;5053006;28;20283;-87
2020/12/16 00:28:13;;;;;;;16.37;11.53;;;;;;;3.20;100.00;97230.66;5052172;28;20198;-87
2020/12/16 00:30:40;;;;;;;18.53;12.93;;;;;;;3.10;100.00;97231.19;5052506;28;20229;-88
2020/12/16 00:33:07;;;;;;;15.60;10.53;;;;;;;3.06;100.00;97232.31;5052557;28;20303;-88
2020/12/16 00:35:34;;;;;;;19.47;12.67;;;;;;;2.92;100.00;97234.03;5053181;28;20632;-87
2020/12/16 00:38:03;;;;;;;16.40;11.47;;;;;;;3.10;100.00;97231.19;5052785;28;20198;-87
2020/12/16 00:40:30;;;;;;;16.93;11.17;;;;;;;3.17;100.00;97233.44;5052757;28;20200;-87
2020/12/16 00:42:58;;;;;;;26.00;17.43;;;;;;;3.14;100.00;97236.22;5051432;28;20291;-87
2020/12/16 00:45:25;;;;;;;19.73;12.93;;;;;;;3.12;100.00;97225.06;5052559;28;20279;-87
2020/12/16 00:47:52;;;;;;;17.53;11.43;;;;;;;2.82;100.00;97234.53;5052773;28;20194;-88
2020/12/16 00:50:19;;;;;;;15.03;11.30;;;;;;;2.79;100.00;97233.88;5053052;28;20236;-87
2020/12/16 00:52:45;;;;;;;15.37;11.77;;;;;;;2.66;100.00;97231.13;5052866;28;20197;-88
2020/12/16 00:55:12;;;;;;;16.63;11.27;;;;;;;2.76;100.00;97228.84;5052734;28;20277;-88
2020/12/16 00:57:39;;;;;;;23.87;14.93;;;;;;;2.85;100.00;97226.59;5052770;28;20194;-88
2020/12/16 01:00:09;;;;;;;75.20;60.63;;;;;;;2.88;100.00;97225.56;5052357;28;20224;-88
2020/12/16 01:02:40;;;;;;;43.20;32.17;;;;;;;3.01;100.00;97230.88;5052533;28;20285;-87
2020/12/16 01:05:06;;;;;;;26.87;19.20;;;;;;;3.10;100.00;97228.59;5052285;28;20218;-86
2020/12/16 01:07:33;;;;;;;24.03;15.40;;;;;;;3.07;100.00;97217.56;5052400;28;20294;-87
2020/12/16 01:10:00;;;;;;;17.20;11.43;;;;;;;2.56;100.00;97228.25;5052208;28;20198;-86
2020/12/16 01:12:27;;;;;;;17.10;11.20;;;;;;;2.68;100.00;97223.28;5052399;28;20237;-88
2020/12/16 01:14:54;;;;;;;16.57;11.37;;;;;;;2.80;100.00;97225.16;5052427;28;20194;-88
2020/12/16 01:17:21;;;;;;;19.93;12.63;;;;;;;2.82;100.00;97228.53;5052616;28;20619;-87
2020/12/16 01:19:48;;;;;;;19.57;11.40;;;;;;;2.86;100.00;97224.81;5052013;28;20843;-87
2020/12/16 01:22:15;;;;;;;22.13;12.93;;;;;;;3.00;100.00;97221.44;5052134;28;20221;-87
2020/12/16 01:24:42;;;;;;;22.57;11.20;;;;;;;2.86;100.00;97228.25;5052404;28;20701;-88
2020/12/16 01:27:09;;;;;;;15.67;11.47;;;;;;;2.84;100.00;97231.84;5052235;28;20222;-88
2020/12/16 01:29:36;;;;;;;18.80;12.27;;;;;;;2.92;100.00;97231.44;5052056;28;20217;-87
2020/12/16 01:32:02;;;;;;;19.10;12.83;;;;;;;3.04;100.00;97228.94;5052149;28;20221;-88
2020/12/16 01:34:30;;;;;;;21.23;12.63;;;;;;;3.02;100.00;97235.19;5052481;28;20633;-88
2020/12/16 01:36:57;;;;;;;18.10;12.13;;;;;;;3.08;100.00;97230.47;5052108;28;20193;-88
2020/12/16 01:39:24;;;;;;;19.77;12.20;;;;;;;2.94;100.00;97233.00;5052553;28;20202;-88
2020/12/16 01:41:51;;;;;;;20.93;13.20;;;;;;;2.85;100.00;97229.19;5052036;28;20705;-88
2020/12/16 01:44:19;;;;;;;20.03;13.53;;;;;;;2.87;100.00;97231.69;5052186;28;20201;-86
2020/12/16 01:46:51;;;;;;;18.37;12.53;;;;;;;2.86;100.00;97232.59;5052096;28;20222;-88
2020/12/16 01:49:18;;;;;;;19.27;12.37;;;;;;;2.96;100.00;97227.72;5052101;28;20225;-88
2020/12/16 01:51:48;;;;;;;20.53;12.83;;;;;;;2.90;100.00;97225.47;5052531;28;20675;-88
2020/12/16 01:54:15;;;;;;;22.23;13.33;;;;;;;2.92;100.00;97219.28;5053935;28;20513;-88
2020/12/16 01:56:42;;;;;;;19.47;12.17;;;;;;;2.87;100.00;97226.47;5055807;28;20205;-87
2020/12/16 01:59:13;;;;;;;21.13;13.43;;;;;;;2.90;100.00;97215.09;5055981;28;20248;-88
2020/12/16 02:01:42;;;;;;;22.30;12.73;;;;;;;2.39;100.00;97217.97;5055810;28;20182;-87
2020/12/16 02:04:11;;;;;;;18.90;12.03;;;;;;;2.72;100.00;97222.16;5056155;28;20586;-88
2020/12/16 02:06:41;;;;;;;16.83;12.33;;;;;;;2.86;100.00;97236.03;5055790;28;20261;-88
2020/12/16 02:09:10;;;;;;;16.07;11.33;;;;;;;2.97;100.00;97234.59;5055597;28;20198;-87
2020/12/16 02:11:39;;;;;;;18.90;12.07;;;;;;;3.07;100.00;97227.94;5055766;28;20565;-88
2020/12/16 02:14:09;;;;;;;17.73;12.37;;;;;;;2.94;100.00;97227.81;5055713;28;20201;-88
2020/12/16 02:16:36;;;;;;;20.63;11.73;;;;;;;2.81;100.00;97226.84;5055633;28;20229;-88
2020/12/16 02:19:04;;;;;;;17.90;11.40;;;;;;;2.82;100.00;97221.56;5055632;28;20202;-88
2020/12/16 02:21:31;;;;;;;16.83;11.73;;;;;;;2.97;100.00;97232.81;5055484;28;20198;-87
2020/12/16 02:24:05;;;;;;;15.47;11.23;;;;;;;3.07;100.00;97227.94;5055408;28;20193;-88
2020/12/16 02:26:34;;;;;;;13.90;11.37;;;;;;;2.95;100.00;97224.31;5055669;28;20201;-87
2020/12/16 02:29:01;;;;;;;15.53;10.97;;;;;;;2.84;100.00;97232.72;5055652;28;20283;-87
2020/12/16 02:31:29;;;;;;;15.97;11.87;;;;;;;2.84;100.00;97229.25;5055095;28;20233;-87
2020/12/16 02:33:57;;;;;;;15.67;11.80;;;;;;;2.76;100.00;97229.69;5055256;28;20201;-87
2020/12/16 02:36:24;;;;;;;16.87;11.53;;;;;;;2.84;100.00;97226.66;5055274;28;20197;-88
2020/12/16 02:38:51;;;;;;;20.27;12.90;;;;;;;2.86;100.00;97232.59;5055223;28;20198;-88
2020/12/16 02:41:18;;;;;;;17.33;11.57;;;;;;;2.94;100.00;97233.00;5055312;28;20197;-86
2020/12/16 02:43:46;;;;;;;20.27;13.60;;;;;;;2.75;100.00;97228.03;5055061;28;20194;-87
2020/12/16 02:46:13;;;;;;;17.03;13.13;;;;;;;2.85;100.00;97230.94;5055238;28;20218;-88
2020/12/16 02:48:40;;;;;;;18.30;11.47;;;;;;;2.89;100.00;97231.59;5054867;28;20293;-88
2020/12/16 02:51:07;;;;;;;17.57;12.37;;;;;;;2.78;100.00;97229.63;5054885;28;20198;-88
2020/12/16 02:53:34;;;;;;;20.43;13.47;;;;;;;2.73;100.00;97231.63;5054861;28;20209;-88
2020/12/16 02:56:01;;;;;;;16.73;11.67;;;;;;;2.74;100.00;97235.91;5054801;28;20194;-87
2020/12/16 02:58:28;;;;;;;17.27;11.40;;;;;;;2.72;100.00;97235.97;5054850;28;20222;-87
2020/12/16 03:00:56;;;;;;;17.37;13.10;;;;;;;2.67;100.00;97234.56;5054687;28;20288;-87
2020/12/16 03:03:22;;;;;;;18.50;13.37;;;;;;;2.69;100.00;97232.72;5054874;28;20228;-87
2020/12/16 03:05:49;;;;;;;20.10;14.33;;;;;;;2.79;100.00;97229.53;5053486;28;20228;-87
2020/12/16 03:08:16;;;;;;;15.80;13.37;;;;;;;2.74;100.00;97235.91;5054848;28;20202;-87
2020/12/16 03:10:43;;;;;;;22.17;13.80;;;;;;;2.67;100.00;97237.16;5054397;28;20200;-87
2020/12/16 03:13:10;;;;;;;19.47;13.30;;;;;;;2.69;100.00;97240.50;5054505;28;20670;-87
2020/12/16 03:15:36;;;;;;;18.13;13.07;;;;;;;2.52;100.00;97237.09;5054249;28;20259;-87
2020/12/16 03:18:04;;;;;;;16.27;13.77;;;;;;;2.58;100.00;97241.94;5054586;28;20649;-86
2020/12/16 03:20:31;;;;;;;20.20;13.27;;;;;;;2.62;100.00;97240.00;5054137;28;20671;-88
2020/12/16 03:22:58;;;;;;;18.13;13.50;;;;;;;2.56;100.00;97248.13;5054370;28;20237;-87
2020/12/16 03:25:25;;;;;;;29.57;19.07;;;;;;;2.65;100.00;97245.03;5054458;28;20224;-88
2020/12/16 03:27:51;;;;;;;15.67;12.70;;;;;;;2.58;100.00;97244.53;5054516;28;20259;-90
2020/12/16 03:30:18;;;;;;;20.77;13.50;;;;;;;2.77;100.00;97246.09;5054074;28;20240;-88
2020/12/16 03:32:48;;;;;;;15.83;12.27;;;;;;;2.74;100.00;97249.72;5054560;28;20229;-87
2020/12/16 03:35:16;;;;;;;17.33;11.63;;;;;;;2.74;100.00;97241.94;5053831;28;20667;-87
2020/12/16 03:37:43;;;;;;;17.50;11.07;;;;;;;2.80;100.00;97248.53;5053796;28;20224;-87
2020/12/16 03:40:10;;;;;;;16.03;11.57;;;;;;;2.80;100.00;97251.13;5053854;28;20202;-88
2020/12/16 03:42:37;;;;;;;20.03;12.83;;;;;;;2.77;100.00;97248.69;5053833;28;20662;-87
2020/12/16 03:45:04;;;;;;;17.30;12.30;;;;;;;2.78;100.00;97255.59;5053582;28;20197;-87
2020/12/16 03:47:31;;;;;;;13.53;11.47;;;;;;;2.63;100.00;97252.06;5054042;28;20632;-88
2020/12/16 03:49:58;;;;;;;18.63;12.97;;;;;;;2.75;100.00;97255.75;5053651;28;20202;-87
2020/12/16 03:52:25;;;;;;;21.87;13.93;;;;;;;2.86;100.00;97256.81;5053696;28;20244;-87
2020/12/16 03:54:52;;;;;;;16.30;12.03;;;;;;;2.87;100.00;97260.22;5053636;28;20284;-87
2020/12/16 03:57:19;;;;;;;17.07;11.67;;;;;;;2.71;100.00;97262.88;5053820;28;20586;-87
2020/12/16 03:59:46;;;;;;;16.27;11.83;;;;;;;2.64;100.00;97250.34;5054138;28;20205;-87
2020/12/16 04:02:12;;;;;;;16.07;11.87;;;;;;;2.74;100.00;97252.31;5053492;28;20207;-88
2020/12/16 04:04:39;;;;;;;19.60;11.53;;;;;;;2.63;100.00;97254.66;5053571;28;20205;-88
2020/12/16 04:07:06;;;;;;;17.23;11.40;;;;;;;2.63;100.00;97257.25;5053329;28;20677;-86
2020/12/16 04:09:34;;;;;;;16.63;11.87;;;;;;;2.80;100.00;97254.56;5053532;28;20259;-86
2020/12/16 04:12:01;;;;;;;21.23;11.93;;;;;;;2.75;100.00;97268.72;5053635;28;20252;-87
2020/12/16 04:14:27;;;;;;;18.53;13.47;;;;;;;2.70;100.00;97257.75;5053653;28;20235;-87
2020/12/16 04:16:57;;;;;;;16.50;12.53;;;;;;;2.86;100.00;97253.38;5053174;28;20189;-87
2020/12/16 04:19:24;;;;;;;20.33;14.77;;;;;;;2.95;100.00;97257.22;5053530;28;20200;-88
2020/12/16 04:21:55;;;;;;;24.63;16.50;;;;;;;2.93;100.00;97249.50;5053765;28;20236;-87
2020/12/16 04:24:22;;;;;;;15.53;12.67;;;;;;;2.92;100.00;97260.81;5053620;28;20247;-88
2020/12/16 04:26:51;;;;;;;17.27;12.23;;;;;;;2.91;100.00;97258.31;5053237;28;20317;-88
2020/12/16 04:29:18;;;;;;;14.10;11.73;;;;;;;2.80;100.00;97259.75;5053623;28;20193;-88
2020/12/16 04:31:49;;;;;;;15.20;11.60;;;;;;;2.78;100.00;97264.19;5053034;28;20267;-88
2020/12/16 04:37:49;;;;;;;20.37;15.13;;;;;;;2.74;100.00;97256.69;5004445;28;20232;-88
2020/12/16 04:40:16;;;;;;;18.23;12.40;;;;;;;2.71;100.00;97257.69;5053060;28;20409;-87
2020/12/16 04:42:43;;;;;;;20.03;14.43;;;;;;;2.76;100.00;97266.03;5053023;28;20186;-88
2020/12/16 04:45:11;;;;;;;29.07;21.60;;;;;;;2.76;100.00;97273.81;5053102;28;20581;-88
2020/12/16 04:47:38;;;;;;;23.67;17.83;;;;;;;2.82;100.00;97265.69;5053264;28;20202;-87
2020/12/16 04:50:06;;;;;;;19.87;14.73;;;;;;;2.70;100.00;97270.72;5052854;28;20193;-87
2020/12/16 04:52:35;;;;;;;30.20;21.47;;;;;;;2.82;100.00;97273.50;5052815;28;20194;-85
2020/12/16 04:55:02;;;;;;;22.70;15.80;;;;;;;2.93;100.00;97278.06;5052805;28;20197;-90
2020/12/16 04:57:28;;;;;;;22.20;16.33;;;;;;;2.88;100.00;97277.50;5049558;28;20248;-89
2020/12/16 04:59:57;;;;;;;16.83;13.03;;;;;;;2.97;100.00;97286.53;5052269;28;20205;-88
2020/12/16 05:02:23;;;;;;;17.93;12.37;;;;;;;2.78;100.00;97290.16;5052585;28;20577;-88
2020/12/16 05:04:53;;;;;;;18.53;13.20;;;;;;;2.77;100.00;97292.81;5052042;28;20241;-89
2020/12/16 05:07:30;;;;;;;18.43;12.63;;;;;;;2.72;100.00;97297.47;5051859;28;20271;-89
2020/12/16 05:09:57;;;;;;;24.20;15.27;;;;;;;2.73;100.00;97299.94;5052531;28;20281;-89
2020/12/16 05:12:24;;;;;;;30.60;22.20;;;;;;;2.81;100.00;97297.78;5052546;28;20221;-88
2020/12/16 05:14:50;;;;;;;24.23;15.60;;;;;;;2.81;100.00;97304.75;5052082;28;20197;-89
2020/12/16 05:17:18;;;;;;;19.27;13.53;;;;;;;2.84;100.00;97305.41;5051807;28;20748;-89
2020/12/16 05:19:46;;;;;;;16.77;12.63;;;;;;;2.78;100.00;97310.09;5051710;28;20209;-89
2020/12/16 05:22:19;;;;;;;20.73;14.27;;;;;;;2.69;100.00;97308.00;5051877;28;20194;-89
2020/12/16 05:24:48;;;;;;;25.00;17.03;;;;;;;2.70;100.00;97307.06;5052767;28;20189;-88
2020/12/16 05:27:19;;;;;;;28.50;19.70;;;;;;;2.78;100.00;97312.69;5053210;28;20700;-88
2020/12/16 05:29:46;;;;;;;22.87;17.10;;;;;;;2.79;100.00;97312.59;5055647;28;20225;-87
2020/12/16 05:32:27;;;;;;;28.80;22.43;;;;;;;2.86;100.00;97310.50;5056723;28;20186;-88
2020/12/16 05:34:57;;;;;;;35.80;26.73;;;;;;;2.71;100.00;97314.78;5056518;28;20213;-88
2020/12/16 05:37:33;;;;;;;43.23;30.20;;;;;;;2.87;100.00;97314.75;5056509;28;20193;-88
2020/12/16 05:40:06;;;;;;;37.83;27.13;;;;;;;2.83;100.00;97311.50;5056623;28;20259;-87
2020/12/16 05:42:33;;;;;;;23.70;19.43;;;;;;;2.77;100.00;97311.00;5056545;28;20198;-88
2020/12/16 05:45:09;;;;;;;21.97;16.50;;;;;;;2.82;100.00;97316.78;5056559;28;20194;-88
2020/12/16 05:47:39;;;;;;;16.57;12.13;;;;;;;2.84;100.00;97314.94;5056471;28;20188;-88
2020/12/16 05:50:16;;;;;;;15.13;12.70;;;;;;;2.86;100.00;97324.31;5056051;28;20217;-88
2020/12/16 05:52:43;;;;;;;17.10;12.23;;;;;;;2.76;100.00;97314.53;5056362;28;20181;-88
2020/12/16 05:55:10;;;;;;;17.20;12.87;;;;;;;2.75;100.00;97320.66;5056453;28;20224;-87
2020/12/16 05:57:37;;;;;;;19.83;14.43;;;;;;;2.62;100.00;97331.69;5056273;28;20583;-87
2020/12/16 06:00:10;;;;;;;17.70;12.77;;;;;;;2.62;100.00;97329.09;5055966;28;20233;-87
2020/12/16 06:02:39;;;;;;;15.17;11.50;;;;;;;2.71;100.00;97337.31;5055830;28;20208;-88
2020/12/16 06:05:08;;;;;;;16.90;11.67;;;;;;;2.67;100.00;97333.19;5055741;28;20209;-88
2020/12/16 06:07:39;;;;;;;16.93;12.67;;;;;;;2.68;100.00;97327.09;5055727;28;20268;-88
2020/12/16 06:10:07;;;;;;;17.63;12.33;;;;;;;2.87;100.00;97335.53;5056300;28;20194;-88
2020/12/16 06:12:38;;;;;;;17.30;12.13;;;;;;;2.88;100.00;97342.44;5055782;28;20201;-87
2020/12/16 06:15:12;;;;;;;19.73;15.40;;;;;;;2.97;100.00;97347.09;5055724;28;20174;-87
2020/12/16 06:17:43;;;;;;;44.27;31.00;;;;;;;3.08;100.00;97343.88;5056329;28;20200;-88
2020/12/16 06:20:14;;;;;;;38.77;25.93;;;;;;;3.09;100.00;97348.19;5056276;28;20611;-87
2020/12/16 06:22:43;;;;;;;42.53;26.30;;;;;;;3.18;100.00;97349.41;5056219;28;20562;-88
2020/12/16 06:25:11;;;;;;;36.70;24.73;;;;;;;3.11;100.00;97346.31;5056042;28;20194;-88
2020/12/16 06:27:44;;;;;;;26.70;19.00;;;;;;;3.00;100.00;97348.69;5055545;28;20252;-87
2020/12/16 06:30:24;;;;;;;21.47;15.17;;;;;;;3.06;100.00;97349.19;5055405;28;20611;-87
2020/12/16 06:33:04;;;;;;;21.80;16.23;;;;;;;3.07;100.00;97348.25;5055661;28;20209;-86
2020/12/16 06:35:31;;;;;;;22.03;16.67;;;;;;;3.11;100.00;97343.72;5055311;28;20175;-87
2020/12/16 06:38:16;;;;;;;21.70;17.80;;;;;;;3.19;100.00;97353.69;5055543;28;20288;-87
2020/12/16 06:40:44;;;;;;;19.57;14.00;;;;;;;3.17;100.00;97352.94;5055683;28;20178;-88
2020/12/16 06:43:37;;;;;;;28.60;19.03;;;;;;;3.34;100.00;97355.41;5055342;28;20202;-88
2020/12/16 06:46:26;;;;;;;48.97;31.77;;;;;;;3.14;100.00;97360.91;5055234;28;20233;-88
2020/12/16 06:48:53;;;;;;;25.13;19.20;;;;;;;3.14;100.00;97363.50;5054873;28;20194;-88
2020/12/16 06:51:21;;;;;;;23.87;18.37;;;;;;;3.23;100.00;97357.81;5055141;28;20244;-88
2020/12/16 06:53:49;;;;;;;30.00;18.97;;;;;;;3.34;100.00;97358.84;5055600;28;20245;-88
2020/12/16 06:56:19;;;;;;;34.53;22.27;;;;;;;3.36;100.00;97366.59;5055426;28;20190;-88
2020/12/16 06:58:46;;;;;;;26.70;17.47;;;;;;;3.37;100.00;97360.44;5055143;28;20186;-89
2020/12/16 07:01:14;;;;;;;23.30;17.40;;;;;;;3.40;100.00;97362.03;5055618;28;20678;-88
2020/12/16 07:03:41;;;;;;;23.60;16.60;;;;;;;3.45;100.00;97366.03;5056040;28;20198;-88
2020/12/16 07:06:33;;;;;;;22.57;13.47;;;;;;;3.31;100.00;97364.22;5055325;28;20244;-88
2020/12/16 07:09:24;;;;;;;23.47;15.77;;;;;;;3.27;100.00;97369.69;5055153;28;20194;-88
2020/12/16 07:11:52;;;;;;;20.57;15.40;;;;;;;3.27;100.00;97372.28;5039726;28;20237;-87
2020/12/16 07:14:21;;;;;;;23.10;15.13;;;;;;;3.14;100.00;97368.69;5054573;28;20285;-88
2020/12/16 07:16:48;;;;;;;22.60;16.60;;;;;;;3.22;100.00;97371.69;5055540;28;20570;-89
2020/12/16 07:19:15;;;;;;;19.63;13.57;;;;;;;3.18;100.00;97370.19;5055795;28;20633;-89
2020/12/16 07:21:43;;;;;;;23.23;15.40;;;;;;;3.07;100.00;97381.19;5055613;28;20200;-89
2020/12/16 07:24:12;;;;;;;22.23;16.57;;;;;;;3.13;100.00;97380.03;5054924;28;20209;-88
2020/12/16 07:26:43;;;;;;;21.50;15.17;;;;;;;3.08;100.00;97390.66;5055780;28;20225;-89
2020/12/16 07:29:37;;;;;;;22.37;16.20;;;;;;;3.18;100.00;97393.56;5055399;28;20186;-87
2020/12/16 07:32:07;;;;;;;24.20;15.37;;;;;;;3.24;100.00;97393.25;5019134;28;20269;-87
2020/12/16 07:34:43;;;;;;;21.00;14.37;;;;;;;3.27;100.00;97393.06;5054908;28;20736;-87
2020/12/16 07:37:12;;;;;;;22.33;15.67;;;;;;;3.26;100.00;97387.03;5053736;28;20186;-85
2020/12/16 07:39:50;;;;;;;25.83;16.57;;;;;;;3.25;100.00;97390.53;5051080;28;20202;-87
2020/12/16 07:42:23;;;;;;;24.07;16.70;;;;;;;3.31;100.00;97390.22;5052962;28;20280;-87
2020/12/16 07:44:50;;;;;;;28.33;18.43;;;;;;;3.30;100.00;97387.72;5054022;28;20259;-88
2020/12/16 07:47:18;;;;;;;26.97;19.30;;;;;;;3.44;100.00;97392.13;5054481;28;20609;-87
2020/12/16 07:49:45;;;;;;;45.00;32.07;;;;;;;3.49;100.00;97397.88;5053937;28;20194;-88
2020/12/16 07:52:13;;;;;;;29.33;22.80;;;;;;;3.44;100.00;97390.34;5053515;28;20288;-87
2020/12/16 07:54:40;;;;;;;18.23;11.90;;;;;;;3.43;100.00;97393.03;5053973;28;20197;-87
2020/12/16 07:57:07;;;;;;;23.37;15.73;;;;;;;3.35;100.00;97398.66;5054083;28;20599;-88
2020/12/16 07:59:35;;;;;;;41.03;25.53;;;;;;;3.32;100.00;97399.66;5055149;28;20610;-88
2020/12/16 08:02:09;;;;;;;30.30;19.50;;;;;;;3.44;100.00;97398.16;5053389;28;20193;-88
2020/12/16 08:04:37;;;;;;;37.90;21.50;;;;;;;3.41;100.00;97398.31;5053724;28;20240;-88
2020/12/16 08:07:16;;;;;;;22.80;15.47;;;;;;;3.51;100.00;97403.84;5053115;28;20316;-88
2020/12/16 08:09:56;;;;;;;55.13;30.83;;;;;;;3.48;100.00;97401.41;5053235;28;20273;-87
2020/12/16 08:12:24;;;;;;;54.87;32.73;;;;;;;3.45;100.00;97410.22;5053162;28;20233;-88
2020/12/16 08:14:51;;;;;;;26.53;17.53;;;;;;;3.57;100.00;97406.94;5053074;28;20190;-88
2020/12/16 08:17:18;;;;;;;42.13;26.83;;;;;;;3.61;100.00;97409.38;5053792;28;20693;-88
2020/12/16 08:19:45;;;;;;;30.87;22.77;;;;;;;3.59;100.00;97401.63;5053589;28;20570;-88
2020/12/16 08:22:14;;;;;;;38.93;28.20;;;;;;;3.69;100.00;97400.19;5053530;28;20707;-88
2020/12/16 08:24:41;;;;;;;19.23;14.63;;;;;;;3.37;100.00;97396.84;5053283;28;20209;-89
2020/12/16 08:27:08;;;;;;;39.03;26.37;;;;;;;3.33;100.00;97403.97;5052902;28;20221;-89
2020/12/16 08:29:37;;;;;;;37.67;24.00;;;;;;;3.30;100.00;97406.72;5052962;28;20252;-88
2020/12/16 08:32:05;;;;;;;29.80;22.67;;;;;;;3.56;100.00;97409.59;5052809;28;20719;-88
2020/12/16 08:34:40;;;;;;;29.20;22.27;;;;;;;3.46;100.00;97413.66;5052899;28;20198;-87
2020/12/16 08:37:11;;;;;;;33.40;23.17;;;;;;;3.57;100.00;97413.91;5053370;28;20612;-87
2020/12/16 08:39:45;;;;;;;27.13;20.23;;;;;;;3.60;100.00;97410.28;5052868;28;20186;-88
2020/12/16 08:42:12;;;;;;;31.17;22.57;;;;;;;3.62;100.00;97411.03;5053037;28;20659;-88
2020/12/16 08:44:39;;;;;;;25.03;18.07;;;;;;;3.60;100.00;97412.88;5052824;28;20209;-88
2020/12/16 08:47:06;;;;;;;25.20;17.23;;;;;;;3.54;100.00;97408.88;5052540;28;20235;-88
2020/12/16 08:49:32;;;;;;;21.30;14.53;;;;;;;3.50;100.00;97416.00;5052765;28;20212;-88
2020/12/16 08:51:59;;;;;;;26.77;19.87;;;;;;;3.64;100.00;97409.16;5052698;28;20204;-88
2020/12/16 08:54:28;;;;;;;26.87;16.73;;;;;;;3.68;100.00;97400.28;5052962;28;20552;-88
2020/12/16 08:56:56;;;;;;;31.00;19.90;;;;;;;3.71;100.00;97407.91;5052983;28;20200;-88
2020/12/16 08:59:27;;;;;;;32.27;21.60;;;;;;;3.69;100.00;97405.38;5052998;28;20206;-88
2020/12/16 09:01:56;;;;;;;24.97;18.93;;;;;;;3.55;100.00;97408.78;5052938;28;20197;-87
2020/12/16 09:04:25;;;;;;;28.80;20.37;;;;;;;3.64;100.00;97401.38;5052144;28;20620;-88
2020/12/16 09:07:06;;;;;;;27.70;21.23;;;;;;;3.67;100.00;97403.78;5053692;28;20663;-87
2020/12/16 09:09:34;;;;;;;32.13;24.37;;;;;;;3.72;100.00;97404.38;5052887;28;20557;-88
2020/12/16 09:12:03;;;;;;;37.27;26.13;;;;;;;3.70;100.00;97403.63;5052732;28;20204;-88
2020/12/16 09:14:30;;;;;;;29.60;22.00;;;;;;;3.65;100.00;97401.28;5052830;28;20205;-88
2020/12/16 09:16:57;;;;;;;28.03;19.97;;;;;;;3.63;100.00;97400.53;5052661;28;20198;-87
2020/12/16 09:19:26;;;;;;;26.23;19.73;;;;;;;3.69;100.00;97401.97;5052628;28;20663;-88
2020/12/16 09:21:53;;;;;;;31.00;22.47;;;;;;;3.57;100.00;97403.50;5052695;28;20541;-88
2020/12/16 09:24:22;;;;;;;32.27;22.80;;;;;;;3.69;100.00;97396.75;5052101;28;20224;-88
2020/12/16 09:26:50;;;;;;;31.93;21.83;;;;;;;3.58;100.00;97394.78;5052198;28;20222;-89
2020/12/16 09:29:23;;;;;;;36.37;24.67;;;;;;;3.58;100.00;97397.38;5052539;28;20198;-88
2020/12/16 09:31:52;;;;;;;27.50;18.87;;;;;;;3.45;100.00;97399.81;5052332;28;20230;-88
2020/12/16 09:34:20;;;;;;;27.37;19.73;;;;;;;3.67;100.00;97391.66;5052103;28;20205;-88
2020/12/16 09:36:46;;;;;;;30.27;17.73;;;;;;;3.51;100.00;97393.44;5052109;28;20212;-89
2020/12/16 09:39:15;;;;;;;33.03;23.03;;;;;;;3.46;100.00;97391.09;5052266;28;20285;-88
2020/12/16 09:41:47;;;;;;;31.87;22.80;;;;;;;3.63;100.00;97391.91;5052112;28;20198;-89
2020/12/16 09:44:25;;;;;;;35.67;26.57;;;;;;;3.68;100.00;97387.28;5052373;28;20205;-89
2020/12/16 09:46:51;;;;;;;36.10;27.77;;;;;;;3.73;100.00;97393.88;5052202;28;20226;-88
2020/12/16 09:49:20;;;;;;;48.27;36.27;;;;;;;3.71;100.00;97389.72;5052221;28;20201;-88
2020/12/16 09:51:47;;;;;;;36.93;29.53;;;;;;;3.70;100.00;97382.81;5052109;28;20331;-89
2020/12/16 09:54:28;;;;;;;34.47;27.20;;;;;;;3.66;100.00;97379.56;5052362;28;20231;-89
2020/12/16 09:57:05;;;;;;;60.73;37.93;;;;;;;3.71;100.00;97384.50;5052314;28;20658;-89
2020/12/16 09:59:33;;;;;;;45.83;28.47;;;;;;;3.68;100.00;97369.09;5052096;28;20190;-88
2020/12/16 10:02:00;;;;;;;24.27;20.40;;;;;;;3.63;100.00;97376.31;5052296;28;20194;-88
2020/12/16 10:04:26;;;;;;;24.33;19.43;;;;;;;3.62;100.00;97366.84;5052350;28;20198;-88
2020/12/16 10:06:53;;;;;;;30.47;19.77;;;;;;;3.54;100.00;97362.91;5052197;28;20222;-89
2020/12/16 10:09:20;;;;;;;30.60;20.60;;;;;;;3.60;100.00;97361.72;5052275;28;20575;-88
2020/12/16 10:11:48;;;;;;;63.50;41.33;;;;;;;3.51;100.00;97357.91;5051941;28;20212;-89
2020/12/16 10:14:17;;;;;;;68.53;43.73;;;;;;;3.64;100.00;97362.38;5052334;28;20205;-88
2020/12/16 10:16:46;;;;;;;47.40;33.70;;;;;;;3.61;100.00;97355.59;5055551;28;20318;-89
2020/12/16 10:19:14;;;;;;;42.17;29.53;;;;;;;3.56;100.00;97360.22;5056061;28;20610;-89
2020/12/16 10:21:41;;;;;;;36.50;27.17;;;;;;;3.66;100.00;97355.31;5055515;28;20281;-89
2020/12/16 10:24:08;;;;;;;33.97;22.63;;;;;;;3.73;100.00;97356.66;5055655;28;20224;-88
2020/12/16 10:26:35;;;;;;;31.87;22.93;;;;;;;3.59;100.00;97354.84;5055819;28;20732;-89
2020/12/16 10:29:01;;;;;;;32.47;22.63;;;;;;;3.60;100.00;97343.50;5055459;28;20198;-89
2020/12/16 10:31:28;;;;;;;25.43;19.10;;;;;;;3.73;100.00;97341.03;5055177;28;20229;-88
2020/12/16 10:33:56;;;;;;;25.03;18.40;;;;;;;3.85;100.00;97348.13;5055317;28;20237;-89
2020/12/16 10:36:23;;;;;;;32.67;22.03;;;;;;;3.73;100.00;97335.84;5055492;28;20328;-89
2020/12/16 10:38:49;;;;;;;27.70;18.97;;;;;;;3.77;100.00;97337.31;5055164;28;20198;-89
2020/12/16 10:41:16;;;;;;;36.23;22.57;;;;;;;3.81;100.00;97334.47;5055356;28;20689;-89
2020/12/16 10:43:43;;;;;;;48.07;32.83;;;;;;;3.80;100.00;97337.16;5055531;28;20691;-89
2020/12/16 10:46:10;;;;;;;41.77;28.60;;;;;;;3.87;100.00;97335.84;5055106;28;20221;-89
2020/12/16 10:48:37;;;;;;;34.43;24.00;;;;;;;3.84;100.00;97332.59;5055121;28;20292;-88
2020/12/16 10:51:04;;;;;;;36.20;24.37;;;;;;;3.74;100.00;97332.31;5055458;28;20277;-89
2020/12/16 10:53:32;;;;;;;31.37;24.87;;;;;;;3.81;100.00;97326.69;5055098;28;20336;-89
2020/12/16 10:55:59;;;;;;;33.87;23.20;;;;;;;3.84;100.00;97328.25;5055025;28;20259;-89
2020/12/16 10:58:27;;;;;;;39.10;22.87;;;;;;;3.69;100.00;97330.00;5055215;28;20579;-88
2020/12/16 11:00:53;;;;;;;26.27;18.63;;;;;;;3.69;100.00;97329.16;5055176;28;20201;-89
2020/12/16 11:03:20;;;;;;;26.70;17.63;;;;;;;3.67;100.00;97325.78;5054937;28;20194;-88
2020/12/16 11:05:47;;;;;;;24.63;17.20;;;;;;;3.60;100.00;97314.09;5054676;28;20339;-88
2020/12/16 11:08:14;;;;;;;28.00;18.30;;;;;;;3.54;100.00;97320.50;5054994;28;20697;-88
2020/12/16 11:10:40;;;;;;;26.43;16.30;;;;;;;3.62;100.00;97317.44;5054795;28;20289;-89
2020/12/16 11:13:07;;;;;;;25.30;16.80;;;;;;;3.68;100.00;97314.50;5054606;28;20205;-89
2020/12/16 11:15:35;;;;;;;21.30;15.93;;;;;;;3.68;100.00;97312.72;5054818;28;20263;-89
2020/12/16 11:18:01;;;;;;;21.10;15.57;;;;;;;3.65;100.00;97314.66;5054747;28;20194;-88
2020/12/16 11:20:28;;;;;;;21.07;16.27;;;;;;;3.57;100.00;97312.53;5054729;28;20785;-89
2020/12/16 11:22:55;;;;;;;23.77;17.50;;;;;;;3.50;100.00;97309.44;5054333;28;20201;-89
2020/12/16 11:25:21;;;;;;;24.37;16.90;;;;;;;3.58;100.00;97312.41;5054568;28;20213;-89
2020/12/16 11:27:48;;;;;;;34.30;22.50;;;;;;;3.62;100.00;97302.69;5053514;28;20584;-88